sensor_id;sensor_type;location;lat;lon;timestamp;P1;durP1;ratioP1;P2;durP2;ratioP2
11771;SDS011;12556;55.748;13.194;2022-12-18T00:01:37;11.00;;;9.00;;
11771;SDS011;12556;55.748;13.194;2022-12-18T00:04:05;12.73;;;8.80;;
11771;SDS011;12556;55.748;13.194;2022-12-18T00:06:33;16.07;;;9.13;;
11771;SDS011;12556;55.748;13.194;2022-12-18T00:09:01;12.77;;;8.40;;
11771;SDS011;12556;55.748;13.194;2022-12-18T00:11:30;13.77;;;9.30;;
11771;SDS011;12556;55.748;13.194;2022-12-18T00:13:58;12.50;;;8.30;;
11771;SDS011;12556;55.748;13.194;2022-12-18T00:16:26;12.97;;;8.53;;
11771;SDS011;12556;55.748;13.194;2022-12-18T00:18:56;13.97;;;8.33;;
11771;SDS011;12556;55.748;13.194;2022-12-18T00:21:25;13.13;;;7.90;;
11771;SDS011;12556;55.748;13.194;2022-12-18T00:23:52;14.67;;;8.53;;
11771;SDS011;12556;55.748;13.194;2022-12-18T00:26:20;11.87;;;8.80;;
11771;SDS011;12556;55.748;13.194;2022-12-18T00:28:50;11.90;;;7.83;;
11771;SDS011;12556;55.748;13.194;2022-12-18T00:31:18;11.17;;;8.07;;
11771;SDS011;12556;55.748;13.194;2022-12-18T00:33:47;16.77;;;8.87;;
11771;SDS011;12556;55.748;13.194;2022-12-18T00:36:16;11.07;;;8.00;;
11771;SDS011;12556;55.748;13.194;2022-12-18T00:38:45;11.50;;;7.87;;
11771;SDS011;12556;55.748;13.194;2022-12-18T00:41:13;12.37;;;7.97;;
11771;SDS011;12556;55.748;13.194;2022-12-18T00:44:02;10.03;;;6.40;;
11771;SDS011;12556;55.748;13.194;2022-12-18T00:46:28;8.63;;;6.40;;
11771;SDS011;12556;55.748;13.194;2022-12-18T00:48:55;10.20;;;7.13;;
11771;SDS011;12556;55.748;13.194;2022-12-18T00:51:24;13.80;;;6.67;;
11771;SDS011;12556;55.748;13.194;2022-12-18T00:53:51;9.90;;;6.03;;
11771;SDS011;12556;55.748;13.194;2022-12-18T00:56:22;8.87;;;6.50;;
11771;SDS011;12556;55.748;13.194;2022-12-18T00:58:49;10.90;;;6.80;;
11771;SDS011;12556;55.748;13.194;2022-12-18T01:01:16;10.83;;;6.63;;
11771;SDS011;12556;55.748;13.194;2022-12-18T01:03:43;9.13;;;6.70;;
11771;SDS011;12556;55.748;13.194;2022-12-18T01:06:12;8.07;;;6.20;;
11771;SDS011;12556;55.748;13.194;2022-12-18T01:08:41;10.60;;;6.33;;
11771;SDS011;12556;55.748;13.194;2022-12-18T01:11:10;11.57;;;6.50;;
11771;SDS011;12556;55.748;13.194;2022-12-18T01:13:39;9.70;;;6.20;;
11771;SDS011;12556;55.748;13.194;2022-12-18T01:16:06;10.43;;;5.60;;
11771;SDS011;12556;55.748;13.194;2022-12-18T01:18:34;11.90;;;6.70;;
11771;SDS011;12556;55.748;13.194;2022-12-18T01:21:02;9.50;;;5.87;;
11771;SDS011;12556;55.748;13.194;2022-12-18T01:23:32;9.67;;;5.87;;
11771;SDS011;12556;55.748;13.194;2022-12-18T01:26:04;11.07;;;5.53;;
11771;SDS011;12556;55.748;13.194;2022-12-18T01:28:33;7.27;;;5.20;;
11771;SDS011;12556;55.748;13.194;2022-12-18T01:31:09;7.27;;;5.20;;
11771;SDS011;12556;55.748;13.194;2022-12-18T01:33:36;6.97;;;5.33;;
11771;SDS011;12556;55.748;13.194;2022-12-18T01:36:03;7.97;;;4.87;;
11771;SDS011;12556;55.748;13.194;2022-12-18T01:38:31;6.67;;;5.27;;
11771;SDS011;12556;55.748;13.194;2022-12-18T01:40:58;8.73;;;5.83;;
11771;SDS011;12556;55.748;13.194;2022-12-18T01:46:09;8.63;;;5.03;;
11771;SDS011;12556;55.748;13.194;2022-12-18T01:48:36;6.77;;;4.67;;
11771;SDS011;12556;55.748;13.194;2022-12-18T01:51:05;7.43;;;5.40;;
11771;SDS011;12556;55.748;13.194;2022-12-18T01:53:33;10.20;;;5.60;;
11771;SDS011;12556;55.748;13.194;2022-12-18T01:56:00;6.40;;;5.17;;
11771;SDS011;12556;55.748;13.194;2022-12-18T01:58:28;8.73;;;5.77;;
11771;SDS011;12556;55.748;13.194;2022-12-18T02:01:03;10.53;;;5.40;;
11771;SDS011;12556;55.748;13.194;2022-12-18T02:03:30;9.27;;;5.73;;
11771;SDS011;12556;55.748;13.194;2022-12-18T02:05:57;7.37;;;5.50;;
11771;SDS011;12556;55.748;13.194;2022-12-18T02:08:30;8.80;;;5.40;;
11771;SDS011;12556;55.748;13.194;2022-12-18T02:11:03;12.13;;;5.90;;
11771;SDS011;12556;55.748;13.194;2022-12-18T02:13:36;8.60;;;6.13;;
11771;SDS011;12556;55.748;13.194;2022-12-18T02:16:12;9.00;;;5.53;;
11771;SDS011;12556;55.748;13.194;2022-12-18T02:18:47;12.57;;;6.13;;
11771;SDS011;12556;55.748;13.194;2022-12-18T02:21:19;9.53;;;6.20;;
11771;SDS011;12556;55.748;13.194;2022-12-18T02:23:52;12.25;;;8.68;;
11771;SDS011;12556;55.748;13.194;2022-12-18T02:26:30;13.10;;;7.37;;
11771;SDS011;12556;55.748;13.194;2022-12-18T02:29:04;9.67;;;6.80;;
11771;SDS011;12556;55.748;13.194;2022-12-18T02:31:35;10.83;;;6.50;;
11771;SDS011;12556;55.748;13.194;2022-12-18T02:34:06;8.43;;;6.70;;
11771;SDS011;12556;55.748;13.194;2022-12-18T02:36:35;11.07;;;6.67;;
11771;SDS011;12556;55.748;13.194;2022-12-18T02:39:04;11.47;;;6.20;;
11771;SDS011;12556;55.748;13.194;2022-12-18T02:41:34;7.67;;;6.03;;
11771;SDS011;12556;55.748;13.194;2022-12-18T02:44:06;11.77;;;7.50;;
11771;SDS011;12556;55.748;13.194;2022-12-18T02:46:36;11.17;;;6.70;;
11771;SDS011;12556;55.748;13.194;2022-12-18T02:49:08;10.53;;;6.93;;
11771;SDS011;12556;55.748;13.194;2022-12-18T02:51:44;10.60;;;6.50;;
11771;SDS011;12556;55.748;13.194;2022-12-18T02:54:18;9.73;;;6.77;;
11771;SDS011;12556;55.748;13.194;2022-12-18T02:56:55;8.33;;;6.33;;
11771;SDS011;12556;55.748;13.194;2022-12-18T02:59:26;12.30;;;6.60;;
11771;SDS011;12556;55.748;13.194;2022-12-18T03:02:00;10.73;;;6.83;;
11771;SDS011;12556;55.748;13.194;2022-12-18T03:04:32;11.47;;;6.50;;
11771;SDS011;12556;55.748;13.194;2022-12-18T03:07:05;8.03;;;6.57;;
11771;SDS011;12556;55.748;13.194;2022-12-18T03:09:37;10.23;;;6.43;;
11771;SDS011;12556;55.748;13.194;2022-12-18T03:12:09;10.13;;;6.97;;
11771;SDS011;12556;55.748;13.194;2022-12-18T03:14:50;10.97;;;6.60;;
11771;SDS011;12556;55.748;13.194;2022-12-18T03:17:23;10.10;;;6.30;;
11771;SDS011;12556;55.748;13.194;2022-12-18T03:19:53;12.53;;;6.33;;
11771;SDS011;12556;55.748;13.194;2022-12-18T03:22:24;9.43;;;6.13;;
11771;SDS011;12556;55.748;13.194;2022-12-18T03:24:56;8.60;;;6.37;;
11771;SDS011;12556;55.748;13.194;2022-12-18T03:27:25;8.20;;;6.20;;
11771;SDS011;12556;55.748;13.194;2022-12-18T03:29:56;8.07;;;5.63;;
11771;SDS011;12556;55.748;13.194;2022-12-18T03:32:33;8.53;;;6.27;;
11771;SDS011;12556;55.748;13.194;2022-12-18T03:35:05;6.77;;;5.23;;
11771;SDS011;12556;55.748;13.194;2022-12-18T03:37:33;11.50;;;5.50;;
11771;SDS011;12556;55.748;13.194;2022-12-18T03:40:00;8.23;;;5.27;;
11771;SDS011;12556;55.748;13.194;2022-12-18T03:42:29;6.27;;;5.60;;
11771;SDS011;12556;55.748;13.194;2022-12-18T03:45:06;9.23;;;5.53;;
11771;SDS011;12556;55.748;13.194;2022-12-18T03:47:38;7.03;;;5.60;;
11771;SDS011;12556;55.748;13.194;2022-12-18T03:50:13;8.10;;;5.77;;
11771;SDS011;12556;55.748;13.194;2022-12-18T03:52:45;9.50;;;6.13;;
11771;SDS011;12556;55.748;13.194;2022-12-18T03:55:18;8.67;;;5.70;;
11771;SDS011;12556;55.748;13.194;2022-12-18T03:57:49;9.00;;;5.57;;
11771;SDS011;12556;55.748;13.194;2022-12-18T04:00:18;8.37;;;5.10;;
11771;SDS011;12556;55.748;13.194;2022-12-18T04:02:47;8.67;;;5.73;;
11771;SDS011;12556;55.748;13.194;2022-12-18T04:05:17;7.27;;;5.83;;
11771;SDS011;12556;55.748;13.194;2022-12-18T04:07:46;11.60;;;6.43;;
11771;SDS011;12556;55.748;13.194;2022-12-18T04:10:15;9.33;;;6.17;;
11771;SDS011;12556;55.748;13.194;2022-12-18T04:12:42;7.20;;;5.83;;
11771;SDS011;12556;55.748;13.194;2022-12-18T04:15:11;9.37;;;5.63;;
11771;SDS011;12556;55.748;13.194;2022-12-18T04:17:38;7.90;;;5.67;;
11771;SDS011;12556;55.748;13.194;2022-12-18T04:20:09;7.60;;;5.70;;
11771;SDS011;12556;55.748;13.194;2022-12-18T04:22:36;8.33;;;5.93;;
11771;SDS011;12556;55.748;13.194;2022-12-18T04:25:03;8.63;;;5.33;;
11771;SDS011;12556;55.748;13.194;2022-12-18T04:27:31;7.77;;;5.50;;
11771;SDS011;12556;55.748;13.194;2022-12-18T04:29:57;8.43;;;5.83;;
11771;SDS011;12556;55.748;13.194;2022-12-18T04:32:26;8.50;;;5.73;;
11771;SDS011;12556;55.748;13.194;2022-12-18T04:34:53;9.30;;;5.53;;
11771;SDS011;12556;55.748;13.194;2022-12-18T04:37:19;9.37;;;5.80;;
11771;SDS011;12556;55.748;13.194;2022-12-18T04:39:46;9.00;;;6.13;;
11771;SDS011;12556;55.748;13.194;2022-12-18T04:42:13;8.80;;;6.30;;
11771;SDS011;12556;55.748;13.194;2022-12-18T04:44:40;8.13;;;6.13;;
11771;SDS011;12556;55.748;13.194;2022-12-18T04:47:07;8.70;;;6.30;;
11771;SDS011;12556;55.748;13.194;2022-12-18T04:49:35;10.70;;;6.20;;
11771;SDS011;12556;55.748;13.194;2022-12-18T04:52:02;11.47;;;6.40;;
11771;SDS011;12556;55.748;13.194;2022-12-18T04:54:29;10.90;;;8.65;;
11771;SDS011;12556;55.748;13.194;2022-12-18T04:56:56;12.40;;;7.07;;
11771;SDS011;12556;55.748;13.194;2022-12-18T04:59:23;9.27;;;6.40;;
11771;SDS011;12556;55.748;13.194;2022-12-18T05:01:49;11.20;;;6.73;;
11771;SDS011;12556;55.748;13.194;2022-12-18T05:04:16;9.83;;;6.27;;
11771;SDS011;12556;55.748;13.194;2022-12-18T05:06:44;11.30;;;5.97;;
11771;SDS011;12556;55.748;13.194;2022-12-18T05:09:11;12.13;;;7.73;;
11771;SDS011;12556;55.748;13.194;2022-12-18T05:11:38;12.53;;;7.03;;
11771;SDS011;12556;55.748;13.194;2022-12-18T05:14:05;8.63;;;7.10;;
11771;SDS011;12556;55.748;13.194;2022-12-18T05:16:32;11.40;;;6.60;;
11771;SDS011;12556;55.748;13.194;2022-12-18T05:18:59;10.37;;;6.17;;
11771;SDS011;12556;55.748;13.194;2022-12-18T05:21:26;10.43;;;7.27;;
11771;SDS011;12556;55.748;13.194;2022-12-18T05:23:54;11.83;;;7.90;;
11771;SDS011;12556;55.748;13.194;2022-12-18T05:26:21;9.37;;;6.63;;
11771;SDS011;12556;55.748;13.194;2022-12-18T05:28:48;10.67;;;6.93;;
11771;SDS011;12556;55.748;13.194;2022-12-18T05:31:15;9.57;;;6.90;;
11771;SDS011;12556;55.748;13.194;2022-12-18T05:33:42;10.67;;;6.40;;
11771;SDS011;12556;55.748;13.194;2022-12-18T05:36:09;10.67;;;6.67;;
11771;SDS011;12556;55.748;13.194;2022-12-18T05:38:37;13.57;;;6.80;;
11771;SDS011;12556;55.748;13.194;2022-12-18T05:41:06;13.23;;;6.93;;
11771;SDS011;12556;55.748;13.194;2022-12-18T05:43:34;10.70;;;6.77;;
11771;SDS011;12556;55.748;13.194;2022-12-18T05:46:05;10.20;;;7.13;;
11771;SDS011;12556;55.748;13.194;2022-12-18T05:48:32;9.70;;;6.77;;
11771;SDS011;12556;55.748;13.194;2022-12-18T05:51:03;12.67;;;7.27;;
11771;SDS011;12556;55.748;13.194;2022-12-18T05:53:32;11.37;;;7.10;;
11771;SDS011;12556;55.748;13.194;2022-12-18T05:56:00;11.73;;;6.80;;
11771;SDS011;12556;55.748;13.194;2022-12-18T05:58:29;11.03;;;6.13;;
11771;SDS011;12556;55.748;13.194;2022-12-18T06:00:56;10.37;;;6.37;;
11771;SDS011;12556;55.748;13.194;2022-12-18T06:03:23;13.10;;;7.50;;
11771;SDS011;12556;55.748;13.194;2022-12-18T06:05:51;13.10;;;6.47;;
11771;SDS011;12556;55.748;13.194;2022-12-18T06:08:17;6.93;;;5.90;;
11771;SDS011;12556;55.748;13.194;2022-12-18T06:10:49;10.70;;;7.37;;
11771;SDS011;12556;55.748;13.194;2022-12-18T06:13:18;11.70;;;6.87;;
11771;SDS011;12556;55.748;13.194;2022-12-18T06:15:47;8.33;;;6.17;;
11771;SDS011;12556;55.748;13.194;2022-12-18T06:18:14;11.50;;;6.37;;
11771;SDS011;12556;55.748;13.194;2022-12-18T06:20:41;11.93;;;7.20;;
11771;SDS011;12556;55.748;13.194;2022-12-18T06:23:07;11.17;;;6.60;;
11771;SDS011;12556;55.748;13.194;2022-12-18T06:25:37;9.67;;;6.00;;
11771;SDS011;12556;55.748;13.194;2022-12-18T06:28:04;11.43;;;6.40;;
11771;SDS011;12556;55.748;13.194;2022-12-18T06:30:31;9.13;;;6.07;;
11771;SDS011;12556;55.748;13.194;2022-12-18T06:33:00;11.50;;;7.10;;
11771;SDS011;12556;55.748;13.194;2022-12-18T06:35:27;8.87;;;6.30;;
11771;SDS011;12556;55.748;13.194;2022-12-18T06:37:53;10.47;;;6.97;;
11771;SDS011;12556;55.748;13.194;2022-12-18T06:40:20;9.53;;;6.53;;
11771;SDS011;12556;55.748;13.194;2022-12-18T06:42:47;9.23;;;6.80;;
11771;SDS011;12556;55.748;13.194;2022-12-18T06:45:14;13.03;;;6.27;;
11771;SDS011;12556;55.748;13.194;2022-12-18T06:47:44;10.40;;;6.47;;
11771;SDS011;12556;55.748;13.194;2022-12-18T06:50:12;12.43;;;6.57;;
11771;SDS011;12556;55.748;13.194;2022-12-18T06:52:39;9.30;;;5.70;;
11771;SDS011;12556;55.748;13.194;2022-12-18T06:55:08;9.77;;;6.60;;
11771;SDS011;12556;55.748;13.194;2022-12-18T06:57:36;11.83;;;6.53;;
11771;SDS011;12556;55.748;13.194;2022-12-18T07:00:04;9.83;;;5.53;;
11771;SDS011;12556;55.748;13.194;2022-12-18T07:02:32;8.73;;;5.53;;
11771;SDS011;12556;55.748;13.194;2022-12-18T07:05:00;9.60;;;6.33;;
11771;SDS011;12556;55.748;13.194;2022-12-18T07:07:28;9.20;;;5.93;;
11771;SDS011;12556;55.748;13.194;2022-12-18T07:09:55;9.43;;;5.97;;
11771;SDS011;12556;55.748;13.194;2022-12-18T07:12:22;9.63;;;6.37;;
11771;SDS011;12556;55.748;13.194;2022-12-18T07:14:48;10.50;;;6.33;;
11771;SDS011;12556;55.748;13.194;2022-12-18T07:17:15;10.33;;;6.00;;
11771;SDS011;12556;55.748;13.194;2022-12-18T07:19:42;10.97;;;6.13;;
11771;SDS011;12556;55.748;13.194;2022-12-18T07:22:09;7.80;;;6.00;;
11771;SDS011;12556;55.748;13.194;2022-12-18T07:24:37;10.20;;;7.63;;
11771;SDS011;12556;55.748;13.194;2022-12-18T07:27:04;10.10;;;7.17;;
11771;SDS011;12556;55.748;13.194;2022-12-18T07:29:31;10.37;;;6.40;;
11771;SDS011;12556;55.748;13.194;2022-12-18T07:31:58;9.80;;;6.60;;
11771;SDS011;12556;55.748;13.194;2022-12-18T07:34:25;10.17;;;6.73;;
11771;SDS011;12556;55.748;13.194;2022-12-18T07:36:52;10.20;;;6.37;;
11771;SDS011;12556;55.748;13.194;2022-12-18T07:39:19;13.00;;;6.37;;
11771;SDS011;12556;55.748;13.194;2022-12-18T07:41:47;11.27;;;6.47;;
11771;SDS011;12556;55.748;13.194;2022-12-18T07:44:34;10.67;;;6.33;;
11771;SDS011;12556;55.748;13.194;2022-12-18T07:47:01;9.90;;;6.03;;
11771;SDS011;12556;55.748;13.194;2022-12-18T07:49:27;11.17;;;6.73;;
11771;SDS011;12556;55.748;13.194;2022-12-18T07:51:55;12.33;;;6.87;;
11771;SDS011;12556;55.748;13.194;2022-12-18T07:54:22;10.00;;;5.90;;
11771;SDS011;12556;55.748;13.194;2022-12-18T07:56:51;8.47;;;5.97;;
11771;SDS011;12556;55.748;13.194;2022-12-18T07:59:18;12.47;;;6.17;;
11771;SDS011;12556;55.748;13.194;2022-12-18T08:01:45;12.43;;;6.20;;
11771;SDS011;12556;55.748;13.194;2022-12-18T08:04:12;10.00;;;6.10;;
11771;SDS011;12556;55.748;13.194;2022-12-18T08:06:39;7.93;;;5.70;;
11771;SDS011;12556;55.748;13.194;2022-12-18T08:09:06;10.20;;;6.10;;
11771;SDS011;12556;55.748;13.194;2022-12-18T08:11:33;11.03;;;6.30;;
11771;SDS011;12556;55.748;13.194;2022-12-18T08:14:02;12.70;;;7.10;;
11771;SDS011;12556;55.748;13.194;2022-12-18T08:16:29;9.20;;;6.63;;
11771;SDS011;12556;55.748;13.194;2022-12-18T08:18:56;9.10;;;6.50;;
11771;SDS011;12556;55.748;13.194;2022-12-18T08:21:24;12.27;;;6.50;;
11771;SDS011;12556;55.748;13.194;2022-12-18T08:23:53;10.57;;;5.70;;
11771;SDS011;12556;55.748;13.194;2022-12-18T08:26:22;11.70;;;6.43;;
11771;SDS011;12556;55.748;13.194;2022-12-18T08:28:51;9.83;;;5.77;;
11771;SDS011;12556;55.748;13.194;2022-12-18T08:31:21;8.13;;;5.60;;
11771;SDS011;12556;55.748;13.194;2022-12-18T08:33:48;9.83;;;6.33;;
11771;SDS011;12556;55.748;13.194;2022-12-18T08:36:17;7.93;;;4.83;;
11771;SDS011;12556;55.748;13.194;2022-12-18T08:38:45;8.40;;;5.83;;
11771;SDS011;12556;55.748;13.194;2022-12-18T08:41:12;9.67;;;5.93;;
11771;SDS011;12556;55.748;13.194;2022-12-18T08:43:40;7.13;;;5.27;;
11771;SDS011;12556;55.748;13.194;2022-12-18T08:46:35;11.73;;;6.90;;
11771;SDS011;12556;55.748;13.194;2022-12-18T08:49:04;8.80;;;5.87;;
11771;SDS011;12556;55.748;13.194;2022-12-18T08:51:31;10.57;;;5.80;;
11771;SDS011;12556;55.748;13.194;2022-12-18T08:53:58;13.97;;;6.93;;
11771;SDS011;12556;55.748;13.194;2022-12-18T08:56:25;13.30;;;6.13;;
11771;SDS011;12556;55.748;13.194;2022-12-18T08:58:52;11.10;;;5.90;;
11771;SDS011;12556;55.748;13.194;2022-12-18T09:01:20;10.03;;;5.77;;
11771;SDS011;12556;55.748;13.194;2022-12-18T09:03:49;10.27;;;5.77;;
11771;SDS011;12556;55.748;13.194;2022-12-18T09:06:17;8.63;;;5.93;;
11771;SDS011;12556;55.748;13.194;2022-12-18T09:08:46;10.17;;;5.27;;
11771;SDS011;12556;55.748;13.194;2022-12-18T09:11:14;9.27;;;6.20;;
11771;SDS011;12556;55.748;13.194;2022-12-18T09:13:44;9.33;;;6.50;;
11771;SDS011;12556;55.748;13.194;2022-12-18T09:16:11;9.87;;;5.50;;
11771;SDS011;12556;55.748;13.194;2022-12-18T09:18:38;9.53;;;6.00;;
11771;SDS011;12556;55.748;13.194;2022-12-18T09:21:10;11.50;;;5.73;;
11771;SDS011;12556;55.748;13.194;2022-12-18T09:23:38;10.07;;;5.50;;
11771;SDS011;12556;55.748;13.194;2022-12-18T09:26:06;7.73;;;5.43;;
11771;SDS011;12556;55.748;13.194;2022-12-18T09:28:33;10.27;;;5.67;;
11771;SDS011;12556;55.748;13.194;2022-12-18T09:31:03;7.77;;;5.67;;
11771;SDS011;12556;55.748;13.194;2022-12-18T09:33:31;9.53;;;6.20;;
11771;SDS011;12556;55.748;13.194;2022-12-18T09:36:00;10.70;;;6.47;;
11771;SDS011;12556;55.748;13.194;2022-12-18T09:38:29;9.47;;;6.17;;
11771;SDS011;12556;55.748;13.194;2022-12-18T09:40:56;11.57;;;6.30;;
11771;SDS011;12556;55.748;13.194;2022-12-18T09:43:28;11.07;;;6.67;;
11771;SDS011;12556;55.748;13.194;2022-12-18T09:45:59;10.83;;;5.77;;
11771;SDS011;12556;55.748;13.194;2022-12-18T09:48:30;12.47;;;6.90;;
11771;SDS011;12556;55.748;13.194;2022-12-18T09:50:59;8.90;;;6.10;;
11771;SDS011;12556;55.748;13.194;2022-12-18T09:53:31;10.50;;;6.80;;
11771;SDS011;12556;55.748;13.194;2022-12-18T09:56:03;9.93;;;6.77;;
11771;SDS011;12556;55.748;13.194;2022-12-18T09:58:31;10.40;;;5.60;;
11771;SDS011;12556;55.748;13.194;2022-12-18T10:01:02;8.90;;;6.07;;
11771;SDS011;12556;55.748;13.194;2022-12-18T10:03:35;11.33;;;6.93;;
11771;SDS011;12556;55.748;13.194;2022-12-18T10:06:04;12.33;;;6.60;;
11771;SDS011;12556;55.748;13.194;2022-12-18T10:08:42;11.00;;;6.30;;
11771;SDS011;12556;55.748;13.194;2022-12-18T10:11:20;14.77;;;7.13;;
11771;SDS011;12556;55.748;13.194;2022-12-18T10:13:55;10.00;;;6.53;;
11771;SDS011;12556;55.748;13.194;2022-12-18T10:16:27;8.67;;;6.03;;
11771;SDS011;12556;55.748;13.194;2022-12-18T10:19:01;10.13;;;6.80;;
11771;SDS011;12556;55.748;13.194;2022-12-18T10:21:38;10.57;;;6.37;;
11771;SDS011;12556;55.748;13.194;2022-12-18T10:24:14;12.03;;;6.87;;
11771;SDS011;12556;55.748;13.194;2022-12-18T10:26:50;10.27;;;6.27;;
11771;SDS011;12556;55.748;13.194;2022-12-18T10:29:19;10.50;;;6.67;;
11771;SDS011;12556;55.748;13.194;2022-12-18T10:31:46;12.53;;;6.83;;
11771;SDS011;12556;55.748;13.194;2022-12-18T10:34:13;12.40;;;7.13;;
11771;SDS011;12556;55.748;13.194;2022-12-18T10:36:40;10.27;;;6.47;;
11771;SDS011;12556;55.748;13.194;2022-12-18T10:39:18;10.67;;;7.43;;
11771;SDS011;12556;55.748;13.194;2022-12-18T10:41:47;12.20;;;6.90;;
11771;SDS011;12556;55.748;13.194;2022-12-18T10:44:16;12.33;;;6.80;;
11771;SDS011;12556;55.748;13.194;2022-12-18T10:46:45;12.20;;;6.90;;
11771;SDS011;12556;55.748;13.194;2022-12-18T10:49:23;10.93;;;6.27;;
11771;SDS011;12556;55.748;13.194;2022-12-18T10:51:52;9.93;;;5.87;;
11771;SDS011;12556;55.748;13.194;2022-12-18T10:54:34;14.73;;;7.13;;
11771;SDS011;12556;55.748;13.194;2022-12-18T10:59:56;13.53;;;7.37;;
11771;SDS011;12556;55.748;13.194;2022-12-18T11:02:25;10.43;;;6.70;;
11771;SDS011;12556;55.748;13.194;2022-12-18T11:04:53;9.50;;;6.47;;
11771;SDS011;12556;55.748;13.194;2022-12-18T11:07:20;11.07;;;7.97;;
11771;SDS011;12556;55.748;13.194;2022-12-18T11:09:59;13.93;;;6.70;;
11771;SDS011;12556;55.748;13.194;2022-12-18T11:12:27;13.90;;;7.10;;
11771;SDS011;12556;55.748;13.194;2022-12-18T11:14:55;12.83;;;6.43;;
11771;SDS011;12556;55.748;13.194;2022-12-18T11:17:25;14.83;;;6.30;;
11771;SDS011;12556;55.748;13.194;2022-12-18T11:19:56;15.80;;;7.03;;
11771;SDS011;12556;55.748;13.194;2022-12-18T11:22:24;12.00;;;6.53;;
11771;SDS011;12556;55.748;13.194;2022-12-18T11:24:55;12.87;;;7.13;;
11771;SDS011;12556;55.748;13.194;2022-12-18T11:27:24;10.40;;;6.80;;
11771;SDS011;12556;55.748;13.194;2022-12-18T11:29:52;10.47;;;6.23;;
11771;SDS011;12556;55.748;13.194;2022-12-18T11:35:10;12.37;;;7.53;;
11771;SDS011;12556;55.748;13.194;2022-12-18T11:37:41;10.23;;;7.00;;
11771;SDS011;12556;55.748;13.194;2022-12-18T11:40:15;11.93;;;7.17;;
11771;SDS011;12556;55.748;13.194;2022-12-18T11:42:45;13.10;;;7.33;;
11771;SDS011;12556;55.748;13.194;2022-12-18T11:45:29;12.70;;;6.90;;
11771;SDS011;12556;55.748;13.194;2022-12-18T11:48:02;13.50;;;6.80;;
11771;SDS011;12556;55.748;13.194;2022-12-18T11:50:34;11.70;;;6.33;;
11771;SDS011;12556;55.748;13.194;2022-12-18T11:53:12;11.27;;;7.03;;
11771;SDS011;12556;55.748;13.194;2022-12-18T11:55:41;14.97;;;7.43;;
11771;SDS011;12556;55.748;13.194;2022-12-18T11:58:17;11.27;;;6.50;;
11771;SDS011;12556;55.748;13.194;2022-12-18T12:00:54;13.10;;;7.60;;
11771;SDS011;12556;55.748;13.194;2022-12-18T12:03:39;10.87;;;6.47;;
11771;SDS011;12556;55.748;13.194;2022-12-18T12:06:21;11.63;;;6.80;;
11771;SDS011;12556;55.748;13.194;2022-12-18T12:08:56;11.37;;;7.33;;
11771;SDS011;12556;55.748;13.194;2022-12-18T12:11:33;9.20;;;7.10;;
11771;SDS011;12556;55.748;13.194;2022-12-18T12:14:12;12.20;;;7.47;;
11771;SDS011;12556;55.748;13.194;2022-12-18T12:16:48;11.70;;;7.03;;
11771;SDS011;12556;55.748;13.194;2022-12-18T12:19:22;12.10;;;7.00;;
11771;SDS011;12556;55.748;13.194;2022-12-18T12:21:58;9.00;;;6.20;;
11771;SDS011;12556;55.748;13.194;2022-12-18T12:24:33;9.73;;;6.77;;
11771;SDS011;12556;55.748;13.194;2022-12-18T12:27:15;9.80;;;6.77;;
11771;SDS011;12556;55.748;13.194;2022-12-18T12:29:49;9.03;;;5.93;;
11771;SDS011;12556;55.748;13.194;2022-12-18T12:32:30;8.60;;;5.97;;
11771;SDS011;12556;55.748;13.194;2022-12-18T12:35:11;11.87;;;7.77;;
11771;SDS011;12556;55.748;13.194;2022-12-18T12:37:49;14.27;;;7.23;;
11771;SDS011;12556;55.748;13.194;2022-12-18T12:40:26;11.57;;;6.13;;
11771;SDS011;12556;55.748;13.194;2022-12-18T12:42:58;10.33;;;6.33;;
11771;SDS011;12556;55.748;13.194;2022-12-18T12:45:40;9.57;;;6.53;;
11771;SDS011;12556;55.748;13.194;2022-12-18T12:48:13;13.67;;;7.03;;
11771;SDS011;12556;55.748;13.194;2022-12-18T12:50:44;12.00;;;5.90;;
11771;SDS011;12556;55.748;13.194;2022-12-18T12:53:15;10.70;;;6.20;;
11771;SDS011;12556;55.748;13.194;2022-12-18T12:55:47;8.53;;;5.80;;
11771;SDS011;12556;55.748;13.194;2022-12-18T12:58:16;10.10;;;6.07;;
11771;SDS011;12556;55.748;13.194;2022-12-18T13:00:50;10.40;;;6.37;;
11771;SDS011;12556;55.748;13.194;2022-12-18T13:03:26;9.90;;;6.20;;
11771;SDS011;12556;55.748;13.194;2022-12-18T13:06:02;10.30;;;6.30;;
11771;SDS011;12556;55.748;13.194;2022-12-18T13:08:52;11.90;;;6.90;;
11771;SDS011;12556;55.748;13.194;2022-12-18T13:11:31;11.20;;;6.00;;
11771;SDS011;12556;55.748;13.194;2022-12-18T13:14:24;15.20;;;6.40;;
11771;SDS011;12556;55.748;13.194;2022-12-18T13:20:02;11.50;;;6.37;;
11771;SDS011;12556;55.748;13.194;2022-12-18T13:22:33;7.47;;;5.30;;
11771;SDS011;12556;55.748;13.194;2022-12-18T13:25:01;9.97;;;6.40;;
11771;SDS011;12556;55.748;13.194;2022-12-18T13:27:46;8.40;;;5.83;;
11771;SDS011;12556;55.748;13.194;2022-12-18T13:30:44;8.43;;;5.30;;
11771;SDS011;12556;55.748;13.194;2022-12-18T13:39:15;11.87;;;5.87;;
11771;SDS011;12556;55.748;13.194;2022-12-18T13:41:52;8.80;;;6.20;;
11771;SDS011;12556;55.748;13.194;2022-12-18T13:44:28;8.60;;;6.00;;
11771;SDS011;12556;55.748;13.194;2022-12-18T13:46:59;15.73;;;5.33;;
11771;SDS011;12556;55.748;13.194;2022-12-18T13:49:29;11.50;;;6.03;;
11771;SDS011;12556;55.748;13.194;2022-12-18T13:52:02;9.20;;;6.07;;
11771;SDS011;12556;55.748;13.194;2022-12-18T13:54:40;8.23;;;5.50;;
11771;SDS011;12556;55.748;13.194;2022-12-18T13:57:24;9.83;;;5.33;;
11771;SDS011;12556;55.748;13.194;2022-12-18T13:59:52;7.53;;;5.77;;
11771;SDS011;12556;55.748;13.194;2022-12-18T14:02:22;8.10;;;5.33;;
11771;SDS011;12556;55.748;13.194;2022-12-18T14:04:50;10.40;;;5.87;;
11771;SDS011;12556;55.748;13.194;2022-12-18T14:07:18;9.87;;;6.20;;
11771;SDS011;12556;55.748;13.194;2022-12-18T14:09:48;7.93;;;4.67;;
11771;SDS011;12556;55.748;13.194;2022-12-18T14:12:18;11.47;;;5.63;;
11771;SDS011;12556;55.748;13.194;2022-12-18T14:15:06;7.70;;;5.60;;
11771;SDS011;12556;55.748;13.194;2022-12-18T14:17:43;8.03;;;5.23;;
11771;SDS011;12556;55.748;13.194;2022-12-18T14:20:12;9.60;;;5.77;;
11771;SDS011;12556;55.748;13.194;2022-12-18T14:22:42;7.67;;;5.40;;
11771;SDS011;12556;55.748;13.194;2022-12-18T14:25:19;13.00;;;6.20;;
11771;SDS011;12556;55.748;13.194;2022-12-18T14:27:49;11.17;;;5.80;;
11771;SDS011;12556;55.748;13.194;2022-12-18T14:30:23;10.53;;;5.90;;
11771;SDS011;12556;55.748;13.194;2022-12-18T14:33:01;10.43;;;6.40;;
11771;SDS011;12556;55.748;13.194;2022-12-18T14:35:28;15.57;;;8.17;;
11771;SDS011;12556;55.748;13.194;2022-12-18T14:38:08;17.07;;;9.93;;
11771;SDS011;12556;55.748;13.194;2022-12-18T14:40:36;11.10;;;6.97;;
11771;SDS011;12556;55.748;13.194;2022-12-18T14:43:03;12.60;;;6.83;;
11771;SDS011;12556;55.748;13.194;2022-12-18T14:45:34;10.23;;;6.90;;
11771;SDS011;12556;55.748;13.194;2022-12-18T14:48:07;10.40;;;6.27;;
11771;SDS011;12556;55.748;13.194;2022-12-18T14:50:34;9.73;;;6.30;;
11771;SDS011;12556;55.748;13.194;2022-12-18T14:53:01;10.33;;;6.10;;
11771;SDS011;12556;55.748;13.194;2022-12-18T14:55:28;11.00;;;5.70;;
11771;SDS011;12556;55.748;13.194;2022-12-18T14:57:55;10.10;;;5.60;;
11771;SDS011;12556;55.748;13.194;2022-12-18T15:00:24;9.60;;;5.30;;
11771;SDS011;12556;55.748;13.194;2022-12-18T15:02:52;7.53;;;4.80;;